LGTS

Thessaloniki International

Airport
ICAO code
LGTS
IATA Code
SKG
Summary
ICAO Region
EUR
ICAO Territory
Location

Thermi, Central Macedonia

Serving
Thessaloniki
Elevation
22 ft
Coordinates
40° 31' 11" N , 22° 58' 15" E
KCC
Csa
Metar
Observation
LGTS 170320Z VRB03KT CAVOK 19/19 Q1010 NOSIG
Station
Thessaloniki Airport
Date/Time
2022-08-17 03:20:00
Wind speed
03 kts
Lowest cloud amount
clouds and visibility OK
Temperature
19°C
Dew point
19°C
Humidity
100%
QNH
1010 hPa
Weather condition
n/a

Description

Thessaloniki International Airport, "Macedonia" (IATA: SKG), formerly known as Mikra Airport (after the municipality of Mikra), is located about 15 km southeast of the city centre of Thessaloniki at Mikra, close to the suburb of Peraia and the municipalities of Pylaia and Thermi.

Climatology

Dry-summer subtropical ”Mediterranean" climate (Köppen climate classification Csa) - characterized by hot, dry summers and mild winters. During the summer, subtropical high pressure cells dominate, making rainfall unlikely except for the occasional thunderstorm. In the winter, periodic storms bring rain (snow at higher elevations).

Runways

Designator Length Width Surface Rops
16/34 2410 60 ASP Yes/Yes
10/28 2440 50 ASP Yes/Yes

Airport map

Aerial View

SKYbrary Partners:

Safety knowledge contributed by: